sensor_id;sensor_type;location;lat;lon;timestamp;P1;durP1;ratioP1;P2;durP2;ratioP2
60999;SDS011;46879;45.658;11.814;2023-07-20T00:02:05;3.53;;;1.95;;
60999;SDS011;46879;45.658;11.814;2023-07-20T00:07:07;2.63;;;2.08;;
60999;SDS011;46879;45.658;11.814;2023-07-20T00:12:08;2.97;;;2.15;;
60999;SDS011;46879;45.658;11.814;2023-07-20T00:17:08;3.65;;;2.20;;
60999;SDS011;46879;45.658;11.814;2023-07-20T00:22:09;5.70;;;1.83;;
60999;SDS011;46879;45.658;11.814;2023-07-20T00:27:09;2.15;;;1.60;;
60999;SDS011;46879;45.658;11.814;2023-07-20T00:32:10;3.95;;;2.10;;
60999;SDS011;46879;45.658;11.814;2023-07-20T00:37:11;3.28;;;1.83;;
60999;SDS011;46879;45.658;11.814;2023-07-20T00:42:12;2.75;;;1.77;;
60999;SDS011;46879;45.658;11.814;2023-07-20T00:47:13;2.17;;;1.90;;
60999;SDS011;46879;45.658;11.814;2023-07-20T00:52:13;2.08;;;1.85;;
60999;SDS011;46879;45.658;11.814;2023-07-20T00:57:15;3.67;;;1.73;;
60999;SDS011;46879;45.658;11.814;2023-07-20T01:02:17;4.68;;;1.65;;
60999;SDS011;46879;45.658;11.814;2023-07-20T01:07:23;2.35;;;1.45;;
60999;SDS011;46879;45.658;11.814;2023-07-20T01:17:48;2.17;;;1.58;;
60999;SDS011;46879;45.658;11.814;2023-07-20T01:23:07;2.88;;;1.90;;
60999;SDS011;46879;45.658;11.814;2023-07-20T01:33:47;2.45;;;1.80;;
60999;SDS011;46879;45.658;11.814;2023-07-20T01:38:48;3.08;;;1.70;;
60999;SDS011;46879;45.658;11.814;2023-07-20T01:43:50;1.90;;;1.48;;
60999;SDS011;46879;45.658;11.814;2023-07-20T01:48:50;2.53;;;1.77;;
60999;SDS011;46879;45.658;11.814;2023-07-20T01:53:52;2.20;;;1.42;;
60999;SDS011;46879;45.658;11.814;2023-07-20T01:58:52;2.75;;;1.88;;
60999;SDS011;46879;45.658;11.814;2023-07-20T02:03:53;8.13;;;1.88;;
60999;SDS011;46879;45.658;11.814;2023-07-20T02:08:54;2.28;;;1.42;;
60999;SDS011;46879;45.658;11.814;2023-07-20T02:13:54;4.18;;;1.85;;
60999;SDS011;46879;45.658;11.814;2023-07-20T02:18:55;3.95;;;1.63;;
60999;SDS011;46879;45.658;11.814;2023-07-20T02:23:56;1.85;;;1.75;;
60999;SDS011;46879;45.658;11.814;2023-07-20T02:28:57;3.60;;;1.90;;
60999;SDS011;46879;45.658;11.814;2023-07-20T02:33:58;3.10;;;1.70;;
60999;SDS011;46879;45.658;11.814;2023-07-20T02:38:58;2.95;;;1.70;;
60999;SDS011;46879;45.658;11.814;2023-07-20T02:43:59;3.10;;;1.65;;
60999;SDS011;46879;45.658;11.814;2023-07-20T02:49:01;2.03;;;1.48;;
60999;SDS011;46879;45.658;11.814;2023-07-20T02:54:01;2.20;;;1.90;;
60999;SDS011;46879;45.658;11.814;2023-07-20T02:59:03;4.40;;;1.67;;
60999;SDS011;46879;45.658;11.814;2023-07-20T03:04:04;1.65;;;1.40;;
60999;SDS011;46879;45.658;11.814;2023-07-20T03:09:04;2.38;;;1.70;;
60999;SDS011;46879;45.658;11.814;2023-07-20T03:14:06;2.08;;;1.40;;
60999;SDS011;46879;45.658;11.814;2023-07-20T03:19:07;4.13;;;1.63;;
60999;SDS011;46879;45.658;11.814;2023-07-20T03:24:08;3.05;;;1.60;;
60999;SDS011;46879;45.658;11.814;2023-07-20T03:29:09;1.63;;;1.33;;
60999;SDS011;46879;45.658;11.814;2023-07-20T03:34:09;3.88;;;1.70;;
60999;SDS011;46879;45.658;11.814;2023-07-20T03:39:10;1.80;;;1.50;;
60999;SDS011;46879;45.658;11.814;2023-07-20T03:44:11;2.35;;;1.45;;
60999;SDS011;46879;45.658;11.814;2023-07-20T03:49:11;3.13;;;1.63;;
60999;SDS011;46879;45.658;11.814;2023-07-20T03:54:12;1.50;;;1.30;;
60999;SDS011;46879;45.658;11.814;2023-07-20T03:59:13;1.70;;;1.40;;
60999;SDS011;46879;45.658;11.814;2023-07-20T04:04:15;3.38;;;1.95;;
60999;SDS011;46879;45.658;11.814;2023-07-20T04:09:16;3.00;;;1.80;;
60999;SDS011;46879;45.658;11.814;2023-07-20T04:14:16;1.33;;;1.20;;
60999;SDS011;46879;45.658;11.814;2023-07-20T04:19:17;2.80;;;1.70;;
60999;SDS011;46879;45.658;11.814;2023-07-20T04:24:18;2.78;;;1.50;;
60999;SDS011;46879;45.658;11.814;2023-07-20T04:29:18;1.77;;;1.40;;
60999;SDS011;46879;45.658;11.814;2023-07-20T04:34:19;3.08;;;1.67;;
60999;SDS011;46879;45.658;11.814;2023-07-20T04:39:20;2.22;;;1.60;;
60999;SDS011;46879;45.658;11.814;2023-07-20T04:44:20;1.50;;;1.40;;
60999;SDS011;46879;45.658;11.814;2023-07-20T04:49:21;2.08;;;1.60;;
60999;SDS011;46879;45.658;11.814;2023-07-20T04:54:21;2.20;;;1.52;;
60999;SDS011;46879;45.658;11.814;2023-07-20T04:59:22;1.30;;;1.20;;
60999;SDS011;46879;45.658;11.814;2023-07-20T05:04:23;2.10;;;1.50;;
60999;SDS011;46879;45.658;11.814;2023-07-20T05:09:23;2.63;;;1.38;;
60999;SDS011;46879;45.658;11.814;2023-07-20T05:14:24;1.50;;;1.40;;
60999;SDS011;46879;45.658;11.814;2023-07-20T05:19:25;1.77;;;1.60;;
60999;SDS011;46879;45.658;11.814;2023-07-20T05:24:25;1.73;;;1.63;;
60999;SDS011;46879;45.658;11.814;2023-07-20T05:29:26;1.88;;;1.27;;
60999;SDS011;46879;45.658;11.814;2023-07-20T05:34:27;2.28;;;1.67;;
60999;SDS011;46879;45.658;11.814;2023-07-20T05:39:27;3.55;;;1.40;;
60999;SDS011;46879;45.658;11.814;2023-07-20T05:44:28;1.80;;;1.50;;
60999;SDS011;46879;45.658;11.814;2023-07-20T05:49:28;4.82;;;1.52;;
60999;SDS011;46879;45.658;11.814;2023-07-20T05:54:29;1.70;;;1.58;;
60999;SDS011;46879;45.658;11.814;2023-07-20T05:59:30;1.58;;;1.40;;
60999;SDS011;46879;45.658;11.814;2023-07-20T06:04:31;2.63;;;1.42;;
60999;SDS011;46879;45.658;11.814;2023-07-20T06:09:33;6.20;;;1.92;;
60999;SDS011;46879;45.658;11.814;2023-07-20T06:14:34;3.20;;;1.73;;
60999;SDS011;46879;45.658;11.814;2023-07-20T06:19:35;2.10;;;1.50;;
60999;SDS011;46879;45.658;11.814;2023-07-20T06:24:35;2.53;;;1.73;;
60999;SDS011;46879;45.658;11.814;2023-07-20T06:29:36;5.18;;;1.80;;
60999;SDS011;46879;45.658;11.814;2023-07-20T06:34:37;3.38;;;1.70;;
60999;SDS011;46879;45.658;11.814;2023-07-20T06:39:38;9.93;;;1.60;;
60999;SDS011;46879;45.658;11.814;2023-07-20T06:44:39;1.88;;;1.30;;
60999;SDS011;46879;45.658;11.814;2023-07-20T06:49:39;5.22;;;1.60;;
60999;SDS011;46879;45.658;11.814;2023-07-20T06:54:40;3.08;;;1.77;;
60999;SDS011;46879;45.658;11.814;2023-07-20T06:59:41;6.13;;;2.03;;
60999;SDS011;46879;45.658;11.814;2023-07-20T07:04:42;1.60;;;1.50;;
60999;SDS011;46879;45.658;11.814;2023-07-20T07:09:42;9.82;;;3.35;;
60999;SDS011;46879;45.658;11.814;2023-07-20T07:14:43;9.55;;;3.38;;
60999;SDS011;46879;45.658;11.814;2023-07-20T07:19:44;7.55;;;4.00;;
60999;SDS011;46879;45.658;11.814;2023-07-20T07:24:44;4.75;;;3.55;;
60999;SDS011;46879;45.658;11.814;2023-07-20T07:29:45;9.00;;;3.50;;
60999;SDS011;46879;45.658;11.814;2023-07-20T07:34:46;6.35;;;3.50;;
60999;SDS011;46879;45.658;11.814;2023-07-20T07:39:47;10.23;;;4.43;;
60999;SDS011;46879;45.658;11.814;2023-07-20T07:44:48;7.93;;;3.58;;
60999;SDS011;46879;45.658;11.814;2023-07-20T07:49:48;9.23;;;3.70;;
60999;SDS011;46879;45.658;11.814;2023-07-20T07:54:49;5.15;;;3.25;;
60999;SDS011;46879;45.658;11.814;2023-07-20T07:59:50;11.13;;;3.50;;
60999;SDS011;46879;45.658;11.814;2023-07-20T08:04:51;7.95;;;3.80;;
60999;SDS011;46879;45.658;11.814;2023-07-20T08:09:52;14.20;;;3.67;;
60999;SDS011;46879;45.658;11.814;2023-07-20T08:14:52;8.98;;;4.00;;
60999;SDS011;46879;45.658;11.814;2023-07-20T08:19:53;10.40;;;3.53;;
60999;SDS011;46879;45.658;11.814;2023-07-20T08:24:54;9.85;;;4.28;;
60999;SDS011;46879;45.658;11.814;2023-07-20T08:29:54;11.85;;;4.20;;
60999;SDS011;46879;45.658;11.814;2023-07-20T08:34:55;11.45;;;4.63;;
60999;SDS011;46879;45.658;11.814;2023-07-20T08:39:56;9.82;;;4.00;;
60999;SDS011;46879;45.658;11.814;2023-07-20T08:44:56;12.85;;;3.88;;
60999;SDS011;46879;45.658;11.814;2023-07-20T08:49:58;10.77;;;3.85;;
60999;SDS011;46879;45.658;11.814;2023-07-20T08:55:00;6.22;;;3.33;;
60999;SDS011;46879;45.658;11.814;2023-07-20T09:00:03;7.32;;;3.50;;
60999;SDS011;46879;45.658;11.814;2023-07-20T09:05:07;11.88;;;3.83;;
60999;SDS011;46879;45.658;11.814;2023-07-20T09:10:09;8.60;;;2.95;;
60999;SDS011;46879;45.658;11.814;2023-07-20T09:15:11;11.23;;;3.25;;
60999;SDS011;46879;45.658;11.814;2023-07-20T09:20:14;11.23;;;3.70;;
60999;SDS011;46879;45.658;11.814;2023-07-20T09:25:17;10.07;;;3.60;;
60999;SDS011;46879;45.658;11.814;2023-07-20T09:30:25;5.43;;;3.10;;
60999;SDS011;46879;45.658;11.814;2023-07-20T09:35:26;6.35;;;3.55;;
60999;SDS011;46879;45.658;11.814;2023-07-20T09:40:27;7.05;;;3.70;;
60999;SDS011;46879;45.658;11.814;2023-07-20T09:45:29;4.68;;;3.15;;
60999;SDS011;46879;45.658;11.814;2023-07-20T09:50:33;9.30;;;4.15;;
60999;SDS011;46879;45.658;11.814;2023-07-20T09:55:34;6.40;;;3.50;;
60999;SDS011;46879;45.658;11.814;2023-07-20T10:00:36;9.25;;;3.38;;
60999;SDS011;46879;45.658;11.814;2023-07-20T10:05:39;12.63;;;3.40;;
60999;SDS011;46879;45.658;11.814;2023-07-20T10:10:43;6.03;;;2.83;;
60999;SDS011;46879;45.658;11.814;2023-07-20T10:15:50;6.30;;;3.15;;
60999;SDS011;46879;45.658;11.814;2023-07-20T10:20:54;6.20;;;3.22;;
60999;SDS011;46879;45.658;11.814;2023-07-20T10:25:57;4.90;;;3.30;;
60999;SDS011;46879;45.658;11.814;2023-07-20T10:30:58;5.18;;;2.78;;
60999;SDS011;46879;45.658;11.814;2023-07-20T10:36:03;3.85;;;2.70;;
60999;SDS011;46879;45.658;11.814;2023-07-20T10:56:48;7.40;;;3.05;;
60999;SDS011;46879;45.658;11.814;2023-07-20T11:01:48;4.13;;;2.67;;
60999;SDS011;46879;45.658;11.814;2023-07-20T11:06:56;7.45;;;2.85;;
60999;SDS011;46879;45.658;11.814;2023-07-20T11:12:08;3.50;;;2.70;;
60999;SDS011;46879;45.658;11.814;2023-07-20T11:17:12;5.13;;;2.53;;
60999;SDS011;46879;45.658;11.814;2023-07-20T11:22:16;3.75;;;2.60;;
60999;SDS011;46879;45.658;11.814;2023-07-20T11:27:17;6.95;;;2.85;;
60999;SDS011;46879;45.658;11.814;2023-07-20T11:32:22;3.13;;;2.60;;
60999;SDS011;46879;45.658;11.814;2023-07-20T11:37:24;4.00;;;2.60;;
60999;SDS011;46879;45.658;11.814;2023-07-20T11:42:24;3.85;;;2.53;;
60999;SDS011;46879;45.658;11.814;2023-07-20T11:47:28;9.75;;;2.83;;
60999;SDS011;46879;45.658;11.814;2023-07-20T11:52:29;6.75;;;2.70;;
60999;SDS011;46879;45.658;11.814;2023-07-20T11:57:31;7.88;;;3.15;;
60999;SDS011;46879;45.658;11.814;2023-07-20T12:02:32;7.38;;;2.75;;
60999;SDS011;46879;45.658;11.814;2023-07-20T12:07:34;14.93;;;3.42;;
60999;SDS011;46879;45.658;11.814;2023-07-20T12:12:40;5.20;;;2.80;;
60999;SDS011;46879;45.658;11.814;2023-07-20T12:17:45;10.18;;;3.03;;
60999;SDS011;46879;45.658;11.814;2023-07-20T12:22:48;4.82;;;2.83;;
60999;SDS011;46879;45.658;11.814;2023-07-20T12:27:49;10.20;;;3.17;;
60999;SDS011;46879;45.658;11.814;2023-07-20T12:32:50;3.67;;;2.53;;
60999;SDS011;46879;45.658;11.814;2023-07-20T12:37:50;8.10;;;3.00;;
60999;SDS011;46879;45.658;11.814;2023-07-20T12:42:51;9.45;;;2.85;;
60999;SDS011;46879;45.658;11.814;2023-07-20T12:47:52;13.07;;;3.00;;
60999;SDS011;46879;45.658;11.814;2023-07-20T12:52:52;19.45;;;3.83;;
60999;SDS011;46879;45.658;11.814;2023-07-20T12:57:53;11.70;;;3.38;;
60999;SDS011;46879;45.658;11.814;2023-07-20T13:02:54;7.38;;;2.90;;
60999;SDS011;46879;45.658;11.814;2023-07-20T13:07:55;6.85;;;2.60;;
60999;SDS011;46879;45.658;11.814;2023-07-20T13:12:55;6.97;;;2.60;;
60999;SDS011;46879;45.658;11.814;2023-07-20T13:17:56;6.00;;;2.97;;
60999;SDS011;46879;45.658;11.814;2023-07-20T13:22:57;7.28;;;2.92;;
60999;SDS011;46879;45.658;11.814;2023-07-20T13:27:57;6.53;;;2.63;;
60999;SDS011;46879;45.658;11.814;2023-07-20T13:32:58;5.47;;;2.90;;
60999;SDS011;46879;45.658;11.814;2023-07-20T13:37:58;18.38;;;3.22;;
60999;SDS011;46879;45.658;11.814;2023-07-20T13:42:59;63.42;;;5.55;;
60999;SDS011;46879;45.658;11.814;2023-07-20T13:47:59;23.30;;;4.07;;
60999;SDS011;46879;45.658;11.814;2023-07-20T13:53:00;23.38;;;3.67;;
60999;SDS011;46879;45.658;11.814;2023-07-20T13:58:02;15.80;;;3.42;;
60999;SDS011;46879;45.658;11.814;2023-07-20T14:03:03;14.65;;;3.22;;
60999;SDS011;46879;45.658;11.814;2023-07-20T14:08:04;19.52;;;3.33;;
60999;SDS011;46879;45.658;11.814;2023-07-20T14:13:05;9.50;;;2.75;;
60999;SDS011;46879;45.658;11.814;2023-07-20T14:18:05;9.07;;;2.83;;
60999;SDS011;46879;45.658;11.814;2023-07-20T14:23:06;9.98;;;3.22;;
60999;SDS011;46879;45.658;11.814;2023-07-20T14:28:07;10.55;;;2.95;;
60999;SDS011;46879;45.658;11.814;2023-07-20T14:33:08;5.43;;;2.38;;
60999;SDS011;46879;45.658;11.814;2023-07-20T14:38:08;6.40;;;2.40;;
60999;SDS011;46879;45.658;11.814;2023-07-20T14:43:10;9.18;;;2.70;;
60999;SDS011;46879;45.658;11.814;2023-07-20T14:48:10;11.82;;;2.78;;
60999;SDS011;46879;45.658;11.814;2023-07-20T14:53:12;8.50;;;2.97;;
60999;SDS011;46879;45.658;11.814;2023-07-20T14:58:13;6.47;;;3.20;;
60999;SDS011;46879;45.658;11.814;2023-07-20T15:03:14;5.45;;;2.65;;
60999;SDS011;46879;45.658;11.814;2023-07-20T15:08:14;13.50;;;2.90;;
60999;SDS011;46879;45.658;11.814;2023-07-20T15:13:15;11.13;;;3.17;;
60999;SDS011;46879;45.658;11.814;2023-07-20T15:18:15;7.95;;;2.60;;
60999;SDS011;46879;45.658;11.814;2023-07-20T15:23:16;8.98;;;2.45;;
60999;SDS011;46879;45.658;11.814;2023-07-20T15:28:16;4.95;;;2.60;;
60999;SDS011;46879;45.658;11.814;2023-07-20T15:33:17;7.30;;;2.63;;
60999;SDS011;46879;45.658;11.814;2023-07-20T15:38:18;5.03;;;2.40;;
60999;SDS011;46879;45.658;11.814;2023-07-20T15:43:18;6.07;;;2.53;;
60999;SDS011;46879;45.658;11.814;2023-07-20T15:48:19;8.32;;;2.67;;
60999;SDS011;46879;45.658;11.814;2023-07-20T15:53:20;11.75;;;2.90;;
60999;SDS011;46879;45.658;11.814;2023-07-20T15:58:20;4.32;;;2.28;;
60999;SDS011;46879;45.658;11.814;2023-07-20T16:03:21;6.78;;;2.35;;
60999;SDS011;46879;45.658;11.814;2023-07-20T16:08:24;7.68;;;2.65;;
60999;SDS011;46879;45.658;11.814;2023-07-20T16:13:25;8.82;;;2.78;;
60999;SDS011;46879;45.658;11.814;2023-07-20T16:18:26;3.60;;;2.30;;
60999;SDS011;46879;45.658;11.814;2023-07-20T16:23:27;6.72;;;2.60;;
60999;SDS011;46879;45.658;11.814;2023-07-20T16:28:28;4.78;;;2.20;;
60999;SDS011;46879;45.658;11.814;2023-07-20T16:33:29;6.35;;;2.63;;
60999;SDS011;46879;45.658;11.814;2023-07-20T16:38:29;3.67;;;2.45;;
60999;SDS011;46879;45.658;11.814;2023-07-20T16:43:30;4.72;;;2.20;;
60999;SDS011;46879;45.658;11.814;2023-07-20T16:48:30;6.13;;;2.38;;
60999;SDS011;46879;45.658;11.814;2023-07-20T16:53:32;5.93;;;2.55;;
60999;SDS011;46879;45.658;11.814;2023-07-20T16:58:32;2.83;;;2.08;;
60999;SDS011;46879;45.658;11.814;2023-07-20T17:03:34;5.80;;;2.28;;
60999;SDS011;46879;45.658;11.814;2023-07-20T17:08:35;4.13;;;2.08;;
60999;SDS011;46879;45.658;11.814;2023-07-20T17:13:36;5.03;;;2.83;;
60999;SDS011;46879;45.658;11.814;2023-07-20T17:18:37;4.88;;;2.17;;
60999;SDS011;46879;45.658;11.814;2023-07-20T17:23:38;4.88;;;2.45;;
60999;SDS011;46879;45.658;11.814;2023-07-20T17:28:38;4.35;;;2.58;;
60999;SDS011;46879;45.658;11.814;2023-07-20T17:33:39;4.97;;;2.63;;
60999;SDS011;46879;45.658;11.814;2023-07-20T17:38:40;6.25;;;2.55;;
60999;SDS011;46879;45.658;11.814;2023-07-20T17:43:40;7.78;;;2.40;;
60999;SDS011;46879;45.658;11.814;2023-07-20T17:48:41;7.57;;;2.67;;
60999;SDS011;46879;45.658;11.814;2023-07-20T17:53:42;5.45;;;2.63;;
60999;SDS011;46879;45.658;11.814;2023-07-20T17:58:43;3.95;;;2.33;;
60999;SDS011;46879;45.658;11.814;2023-07-20T18:03:44;3.78;;;2.17;;
60999;SDS011;46879;45.658;11.814;2023-07-20T18:08:44;5.88;;;2.63;;
60999;SDS011;46879;45.658;11.814;2023-07-20T18:13:45;9.45;;;3.47;;
60999;SDS011;46879;45.658;11.814;2023-07-20T18:18:45;8.20;;;2.70;;
60999;SDS011;46879;45.658;11.814;2023-07-20T18:23:46;3.83;;;2.45;;
60999;SDS011;46879;45.658;11.814;2023-07-20T18:28:47;3.63;;;2.40;;
60999;SDS011;46879;45.658;11.814;2023-07-20T18:33:48;6.80;;;2.33;;
60999;SDS011;46879;45.658;11.814;2023-07-20T18:38:48;5.53;;;2.63;;
60999;SDS011;46879;45.658;11.814;2023-07-20T18:43:49;10.20;;;3.05;;
60999;SDS011;46879;45.658;11.814;2023-07-20T18:48:50;4.72;;;2.40;;
60999;SDS011;46879;45.658;11.814;2023-07-20T18:53:51;3.38;;;2.42;;
60999;SDS011;46879;45.658;11.814;2023-07-20T18:58:53;9.85;;;2.95;;
60999;SDS011;46879;45.658;11.814;2023-07-20T19:03:54;11.05;;;3.22;;
60999;SDS011;46879;45.658;11.814;2023-07-20T19:08:55;5.05;;;2.67;;
60999;SDS011;46879;45.658;11.814;2023-07-20T19:13:56;6.65;;;2.45;;
60999;SDS011;46879;45.658;11.814;2023-07-20T19:18:56;5.50;;;2.90;;
60999;SDS011;46879;45.658;11.814;2023-07-20T19:23:57;5.05;;;2.58;;
60999;SDS011;46879;45.658;11.814;2023-07-20T19:28:58;10.82;;;2.88;;
60999;SDS011;46879;45.658;11.814;2023-07-20T19:33:58;7.70;;;3.40;;
60999;SDS011;46879;45.658;11.814;2023-07-20T19:38:59;5.95;;;2.80;;
60999;SDS011;46879;45.658;11.814;2023-07-20T19:44:00;5.70;;;3.42;;
60999;SDS011;46879;45.658;11.814;2023-07-20T19:49:01;5.78;;;3.58;;
60999;SDS011;46879;45.658;11.814;2023-07-20T19:54:01;5.85;;;3.90;;
60999;SDS011;46879;45.658;11.814;2023-07-20T19:59:03;8.10;;;3.67;;
60999;SDS011;46879;45.658;11.814;2023-07-20T20:04:04;8.65;;;3.53;;
60999;SDS011;46879;45.658;11.814;2023-07-20T20:09:04;9.68;;;3.63;;
60999;SDS011;46879;45.658;11.814;2023-07-20T20:14:05;26.13;;;4.53;;
60999;SDS011;46879;45.658;11.814;2023-07-20T20:19:06;15.88;;;4.32;;
60999;SDS011;46879;45.658;11.814;2023-07-20T20:24:10;16.17;;;4.28;;
60999;SDS011;46879;45.658;11.814;2023-07-20T20:29:10;19.20;;;4.20;;
60999;SDS011;46879;45.658;11.814;2023-07-20T20:34:11;7.68;;;3.70;;
60999;SDS011;46879;45.658;11.814;2023-07-20T20:39:12;8.30;;;3.47;;
60999;SDS011;46879;45.658;11.814;2023-07-20T20:44:13;12.25;;;3.78;;
60999;SDS011;46879;45.658;11.814;2023-07-20T20:49:21;16.10;;;3.60;;
60999;SDS011;46879;45.658;11.814;2023-07-20T20:54:22;12.55;;;3.47;;
60999;SDS011;46879;45.658;11.814;2023-07-20T20:59:23;18.70;;;3.60;;
60999;SDS011;46879;45.658;11.814;2023-07-20T21:04:24;10.43;;;3.03;;
60999;SDS011;46879;45.658;11.814;2023-07-20T21:09:25;9.73;;;3.58;;
60999;SDS011;46879;45.658;11.814;2023-07-20T21:14:26;11.82;;;3.40;;
60999;SDS011;46879;45.658;11.814;2023-07-20T21:19:26;11.60;;;3.20;;
60999;SDS011;46879;45.658;11.814;2023-07-20T21:24:27;19.20;;;3.00;;
60999;SDS011;46879;45.658;11.814;2023-07-20T21:29:28;12.43;;;3.45;;
60999;SDS011;46879;45.658;11.814;2023-07-20T21:34:29;13.70;;;3.25;;
60999;SDS011;46879;45.658;11.814;2023-07-20T21:39:29;14.23;;;2.80;;
60999;SDS011;46879;45.658;11.814;2023-07-20T21:44:31;7.60;;;3.10;;
60999;SDS011;46879;45.658;11.814;2023-07-20T21:49:32;5.93;;;2.80;;
60999;SDS011;46879;45.658;11.814;2023-07-20T21:54:32;13.48;;;3.42;;
60999;SDS011;46879;45.658;11.814;2023-07-20T21:59:33;15.85;;;3.30;;
60999;SDS011;46879;45.658;11.814;2023-07-20T22:04:34;10.98;;;3.00;;
60999;SDS011;46879;45.658;11.814;2023-07-20T22:09:34;7.15;;;2.90;;
60999;SDS011;46879;45.658;11.814;2023-07-20T22:14:35;8.55;;;2.92;;
60999;SDS011;46879;45.658;11.814;2023-07-20T22:19:38;9.90;;;2.75;;
60999;SDS011;46879;45.658;11.814;2023-07-20T22:24:38;7.82;;;2.90;;
60999;SDS011;46879;45.658;11.814;2023-07-20T22:29:39;11.10;;;3.03;;
60999;SDS011;46879;45.658;11.814;2023-07-20T22:34:39;7.00;;;2.63;;
60999;SDS011;46879;45.658;11.814;2023-07-20T22:39:40;5.47;;;2.10;;
60999;SDS011;46879;45.658;11.814;2023-07-20T22:44:41;8.57;;;2.63;;
60999;SDS011;46879;45.658;11.814;2023-07-20T22:49:41;6.22;;;2.70;;
60999;SDS011;46879;45.658;11.814;2023-07-20T22:54:42;9.35;;;2.47;;
60999;SDS011;46879;45.658;11.814;2023-07-20T22:59:43;9.48;;;2.53;;
60999;SDS011;46879;45.658;11.814;2023-07-20T23:04:44;5.10;;;2.60;;
60999;SDS011;46879;45.658;11.814;2023-07-20T23:09:45;6.07;;;2.25;;
60999;SDS011;46879;45.658;11.814;2023-07-20T23:14:46;4.20;;;2.15;;
60999;SDS011;46879;45.658;11.814;2023-07-20T23:19:46;5.90;;;2.35;;
60999;SDS011;46879;45.658;11.814;2023-07-20T23:24:47;6.07;;;2.78;;
60999;SDS011;46879;45.658;11.814;2023-07-20T23:29:49;3.33;;;2.15;;
60999;SDS011;46879;45.658;11.814;2023-07-20T23:34:49;5.97;;;2.65;;
60999;SDS011;46879;45.658;11.814;2023-07-20T23:39:50;4.05;;;2.30;;
60999;SDS011;46879;45.658;11.814;2023-07-20T23:44:52;4.35;;;2.28;;
60999;SDS011;46879;45.658;11.814;2023-07-20T23:49:53;4.78;;;2.60;;
60999;SDS011;46879;45.658;11.814;2023-07-20T23:54:53;5.07;;;2.03;;
60999;SDS011;46879;45.658;11.814;2023-07-20T23:59:54;3.55;;;2.05;;
